X  CloseMetar Aviation Weather Data     KBWI Baltimore / Washington International Thurgood Marshall

Temperature

63°F Temperature

52°F Dewpoint

68% Humidity



Wind

 5 MPH

 8 KM/H

 2 M/S

 4 KTS



190°
Due South
Current Conditions

Mostly Cloudy Mostly Cloudy
Pressure 1021.32 (hPa) - 30.16 (in)
Visibility 10 (mi) - 16.1 (km)
Airport
Airport-code KBWI

Location Baltimore / Washington International Thurgood Marshall 6 (mi)

Metar:
KBWI 231154Z 19004KT 10SM BKN100 BKN250 17/11 A3016 RMK AO2 SLP213 T01720111 10172 20150 56007

Time: 05-23-2019 07:54